M I D A S
Marine Information and Data Acquisition System
Tripno 593 of the Zeeleeuw from 2003-09-18 06:17:58 to 2003-09-18 13:10:43
Back to CruiseResearch ActivitiesStationsMapUnderway DataData graphs

EquipmentUnitsComment
TimeDGPSUTC
LatitudeDGPSDM.mWGS84
LongitudeDGPSDM.mWGS84
HeadingGyrodeg 
SOGDGPSknotsSpeed over ground
COGDGPSdegCourse over ground
DepthEcho soundermeters200 kHz
Missing or incorrect values are displayed as -999
Navigation data collected by the RV Zeeleeuw from 2003-09-18 06:17:58 to 2003-09-18 13:10:43
Time Latitude Longitude Heading SOG COG Depth
2003-09-18 06:19:02 51°13.8 2°55.66 334.1 8.8 330 12.9
2003-09-18 06:20:02 51°13.94 2°55.55 340.5 9 335 12.8
2003-09-18 06:21:02 51°14.07 2°55.45 340.1 8.2 335 12.2
2003-09-18 06:22:02 51°14.21 2°55.33 333.1 10.6 326 12.6
2003-09-18 06:23:02 51°14.34 2°55.12 313.9 11 309 12.9
2003-09-18 06:24:02 51°14.48 2°54.93 330.6 11.6 327 11.6
2003-09-18 06:25:02 51°14.65 2°54.76 328.4 12.8 326 11.2
2003-09-18 06:26:02 51°14.83 2°54.56 328.6 13.7 325 11
2003-09-18 06:27:02 51°15.03 2°54.36 330.9 13.8 327 10.3
2003-09-18 06:28:02 51°15.22 2°54.17 332 14 329 10.7
2003-09-18 06:29:02 51°15.43 2°54 340.3 14.1 337 11.5
2003-09-18 06:30:02 51°15.64 2°53.85 338 14.1 335 12.3
2003-09-18 06:31:02 51°15.85 2°53.68 335.5 14 333 12.9
2003-09-18 06:32:02 51°16.06 2°53.51 336.3 13.9 334 13.5
2003-09-18 06:33:02 51°16.27 2°53.35 337.9 14 336 13.9
2003-09-18 06:34:02 51°16.48 2°53.2 338.2 14 335 13.8
2003-09-18 06:35:02 51°16.69 2°53.04 337.9 14 335 12.8
2003-09-18 06:36:02 51°16.9 2°52.89 338.5 13.8 336 10.4
2003-09-18 06:37:02 51°17.12 2°52.73 340.8 14.2 338 11.5
2003-09-18 06:38:02 51°17.35 2°52.69 3.1 14.3 359 11.3
2003-09-18 06:39:02 51°17.59 2°52.67 1 14.3 356 11.6
2003-09-18 06:40:02 51°17.83 2°52.65 0.9 14.2 356 11.7
2003-09-18 06:41:02 51°18.06 2°52.62 358.8 14.4 355 12
2003-09-18 06:42:02 51°18.3 2°52.62 15.1 14.3 13 12.5
2003-09-18 06:43:02 51°18.5 2°52.83 54.8 14.2 52 12.7
2003-09-18 06:44:02 51°18.59 2°53.17 74.6 14.3 68 12.8
2003-09-18 06:45:02 51°18.69 2°53.52 71.8 14.4 65 12.9
2003-09-18 06:46:02 51°18.8 2°53.86 71.9 14.2 66 12.9
2003-09-18 06:47:02 51°18.9 2°54.2 69.3 14.2 63 12.9
2003-09-18 06:48:02 51°19 2°54.54 70.4 14.2 64 12.7
2003-09-18 06:49:02 51°19.1 2°54.89 69.9 14.3 63 12.6
2003-09-18 06:50:02 51°19.21 2°55.23 70.5 14.3 64 12.5
2003-09-18 06:51:02 51°19.31 2°55.57 69.7 14.4 63 12.8
2003-09-18 06:52:02 51°19.42 2°55.91 70.7 14.3 64 12.9
2003-09-18 06:53:02 51°19.52 2°56.25 70.3 14.3 63 12.8
2003-09-18 06:54:02 51°19.63 2°56.59 70.4 14.3 64 12.7
2003-09-18 06:55:02 51°19.73 2°56.93 70.9 14.3 64 12.5
2003-09-18 06:56:02 51°19.84 2°57.27 70.1 14.3 63 12.5
2003-09-18 06:57:02 51°19.94 2°57.62 71 14.3 65 12.5
2003-09-18 06:58:02 51°20.05 2°57.96 70.3 14.3 63 12.4
2003-09-18 06:59:02 51°20.15 2°58.3 70.3 14.3 63 12.4
2003-09-18 07:00:02 51°20.26 2°58.64 72.7 14.2 67 12.3
2003-09-18 07:01:02 51°20.34 2°58.99 74 14.2 69 12.2
2003-09-18 07:02:02 51°20.43 2°59.34 72.9 14.3 67 12
2003-09-18 07:03:02 51°20.52 2°59.69 74.1 14.3 68 12
2003-09-18 07:04:02 51°20.61 3°0.04 73.6 14.4 67 12
2003-09-18 07:05:02 51°20.7 3°0.4 73.1 14.3 67 11.9
2003-09-18 07:06:02 51°20.79 3°0.75 74.5 14.2 68 11.9
2003-09-18 07:07:02 51°20.88 3°1.1 75.8 14.3 69 11.9
2003-09-18 07:08:02 51°20.97 3°1.46 75.7 14.4 70 11.8
2003-09-18 07:09:02 51°21.05 3°1.81 75.3 14.4 69 11.8
2003-09-18 07:10:02 51°21.14 3°2.17 74.9 14.2 70 11.8
2003-09-18 07:11:02 51°21.22 3°2.53 74.9 14.4 69 11.9
2003-09-18 07:12:02 51°21.31 3°2.88 74.8 14.3 69 12.1
2003-09-18 07:13:02 51°21.39 3°3.24 75.8 14.3 69 12.2
2003-09-18 07:14:02 51°21.47 3°3.59 76.8 14.2 71 12.3
2003-09-18 07:15:02 51°21.56 3°3.95 76 14.1 71 12.4
2003-09-18 07:16:02 51°21.64 3°4.3 74.6 14.2 69 12.5
2003-09-18 07:17:02 51°21.72 3°4.65 75 14.1 69 12.4
2003-09-18 07:18:02 51°21.81 3°5 75.8 14 71 12.6
2003-09-18 07:19:02 51°21.89 3°5.35 75.5 14 70 12.7
2003-09-18 07:20:02 51°21.97 3°5.7 75.7 13.8 72 12.9
2003-09-18 07:21:02 51°22.05 3°6.05 75.3 14 69 13
2003-09-18 07:22:02 51°22.12 3°6.4 78 13.9 72 13.2
2003-09-18 07:23:02 51°22.19 3°6.75 77.7 13.8 72 13.3
2003-09-18 07:24:02 51°22.26 3°7.1 77.7 13.8 72 13.4
2003-09-18 07:25:02 51°22.33 3°7.45 76.9 13.8 72 13.4
2003-09-18 07:26:02 51°22.4 3°7.8 77.6 13.8 72 13.6
2003-09-18 07:27:02 51°22.48 3°8.15 76.9 13.9 71 13.8
2003-09-18 07:28:02 51°22.54 3°8.48 78.6 11.5 72 13.9
2003-09-18 07:29:02 51°22.6 3°8.76 77.6 10.9 72 14
2003-09-18 07:30:02 51°22.64 3°8.99 80.5 6.9 73 14.1
2003-09-18 07:31:02 51°22.68 3°9.12 67.2 4.7 59 14.3
2003-09-18 07:32:02 51°22.71 3°9.21 74.1 3.7 65 14.4
2003-09-18 07:33:02 51°22.72 3°9.3 96.4 2.9 83 14.2
2003-09-18 07:34:02 51°22.73 3°9.4 92.4 4.9 89 14.3
2003-09-18 07:35:02 51°22.71 3°9.48 151.1 0.6 66 14.4
2003-09-18 07:36:01 51°22.72 3°9.49 150.5 0.6 64 14.4
2003-09-18 07:37:01 51°22.72 3°9.51 153.6 0.7 84 14.4
2003-09-18 07:38:01 51°22.72 3°9.53 155.6 0.6 85 14.4
2003-09-18 07:39:01 51°22.72 3°9.54 155.3 0.6 92 14.5
2003-09-18 07:40:01 51°22.72 3°9.56 156 0.6 103 14.5
2003-09-18 07:41:01 51°22.72 3°9.57 162.3 0.6 108 14.6
2003-09-18 07:42:01 51°22.72 3°9.59 169.5 0.5 121 14.6
2003-09-18 07:43:02 51°22.71 3°9.6 180.4 0.3 147 14.4
2003-09-18 07:44:01 51°22.71 3°9.6 195.4 0.3 196 14.5
2003-09-18 07:45:01 51°22.7 3°9.59 211.6 0.5 249 14.5
2003-09-18 07:46:01 51°22.7 3°9.57 234 0.8 277 14.4
2003-09-18 07:47:01 51°22.7 3°9.54 247.1 1.2 283 14.3
2003-09-18 07:48:01 51°22.71 3°9.51 250.3 1 290 14.2
2003-09-18 07:49:01 51°22.72 3°9.49 250.4 0.8 300 14.1
2003-09-18 07:50:01 51°22.73 3°9.47 244.2 0.8 300 14.2
2003-09-18 07:51:01 51°22.73 3°9.45 239.3 0.8 292 14.2
2003-09-18 07:52:01 51°22.74 3°9.43 241.3 0.9 288 14.2
2003-09-18 07:53:01 51°22.74 3°9.41 243.6 0.9 284 14.2
2003-09-18 07:54:01 51°22.74 3°9.39 246 1 288 14.3
2003-09-18 07:55:01 51°22.75 3°9.36 245 1.1 283 14.1
2003-09-18 07:56:01 51°22.75 3°9.33 235.1 1 273 14.1
2003-09-18 07:57:01 51°22.75 3°9.3 235.9 1.1 266 14.1
2003-09-18 07:58:01 51°22.75 3°9.27 240.9 1.2 268 14.2
2003-09-18 07:59:01 51°22.75 3°9.24 252.9 1.4 274 14
2003-09-18 08:00:01 51°22.76 3°9.2 262.7 1.7 285 14
2003-09-18 08:01:01 51°22.76 3°9.15 270 1.8 285 13.9
2003-09-18 08:02:01 51°22.77 3°9.11 276.5 2.2 287 14.1
2003-09-18 08:03:01 51°22.83 3°8.98 316.4 8.1 311 13.9
2003-09-18 08:04:01 51°22.92 3°8.78 309.7 9.5 306 13.8
2003-09-18 08:05:01 51°23.01 3°8.58 310.9 9.7 308 13.5
2003-09-18 08:06:01 51°23.14 3°8.41 334.1 10.7 329 12.9
2003-09-18 08:07:01 51°23.31 3°8.31 352.1 11 346 13.1
2003-09-18 08:08:01 51°23.51 3°8.27 3.3 13.6 357 17.2
2003-09-18 08:09:01 51°23.74 3°8.24 1.5 14 355 19.2
2003-09-18 08:10:01 51°23.97 3°8.16 340.8 14 334 19.1
2003-09-18 08:11:01 51°24.13 3°7.95 320.1 10.8 315 19.1
2003-09-18 08:12:01 51°24.22 3°7.74 295.5 8.9 293 16.8
2003-09-18 08:13:01 51°24.24 3°7.55 265.3 6.4 268 15.9
2003-09-18 08:14:01 51°24.23 3°7.39 253.2 5.7 258 16.1
2003-09-18 08:15:01 51°24.2 3°7.22 252.6 8.4 254 16.8
2003-09-18 08:16:01 51°24.15 3°6.97 262.9 9.9 265 18.2
2003-09-18 08:17:01 51°24.23 3°6.84 14.1 7.4 8 15.6
2003-09-18 08:18:01 51°24.28 3°6.94 93.2 3.7 79 14.8
2003-09-18 08:19:01 51°24.29 3°7 99.9 0.7 35 14.5
2003-09-18 08:20:01 51°24.3 3°7.01 106.2 0.8 58 14.3
2003-09-18 08:21:01 51°24.3 3°7.03 104 0.8 51 14.1
2003-09-18 08:22:01 51°24.31 3°7.04 103.6 0.6 13 13.9
2003-09-18 08:23:01 51°24.32 3°7.05 115.8 1.2 84 13.7
2003-09-18 08:24:01 51°24.29 3°7.08 166.9 1.5 176 14.2
2003-09-18 08:25:01 51°24.29 3°7.07 194.5 1.1 213 14.2
2003-09-18 08:26:01 51°24.28 3°7.05 203.7 0.8 241 14.5
2003-09-18 08:27:01 51°24.27 3°7.03 202.9 0.7 263 14.6
2003-09-18 08:28:01 51°24.27 3°7.01 203.7 0.6 283 14.6
2003-09-18 08:29:01 51°24.28 3°7 199.5 0.5 315 14.6
2003-09-18 08:30:01 51°24.29 3°6.99 188.7 0.6 336 14.5
2003-09-18 08:31:01 51°24.3 3°6.98 173 0.8 341 14.2
2003-09-18 08:32:01 51°24.31 3°6.97 154.1 0.9 339 14
2003-09-18 08:33:01 51°24.32 3°6.96 142.2 0.7 342 13.7
2003-09-18 08:34:01 51°24.33 3°6.96 141.9 0.5 349 13.6
2003-09-18 08:35:01 51°24.34 3°6.96 148.7 0.3 348 13.5
2003-09-18 08:36:01 51°24.34 3°6.96 159 0.2 309 13.5
2003-09-18 08:37:01 51°24.34 3°6.95 168.3 0.2 297 13.3
2003-09-18 08:38:01 51°24.34 3°6.94 178.8 0.5 273 13.3
2003-09-18 08:39:01 51°24.34 3°6.93 188.7 0.5 268 13.3
2003-09-18 08:40:01 51°24.34 3°6.91 202.5 0.7 267 13.3
2003-09-18 08:41:01 51°24.34 3°6.89 218.9 1 269 13.3
2003-09-18 08:42:01 51°24.35 3°6.86 242 1.4 285 13.2
2003-09-18 08:43:01 51°24.35 3°6.82 271.1 1.8 295 13
2003-09-18 08:44:01 51°24.37 3°6.77 285.1 2.2 300 12.9
2003-09-18 08:45:01 51°24.39 3°6.71 290 3.4 299 12.7
2003-09-18 08:46:01 51°24.45 3°6.63 2.9 5.6 352 12.4
2003-09-18 08:47:01 51°24.56 3°6.65 25.3 7.4 13 12.4
2003-09-18 08:48:01 51°24.69 3°6.72 31.9 9.5 20 11.8
2003-09-18 08:49:01 51°24.85 3°6.82 32.1 10.9 21 11.2
2003-09-18 08:50:01 51°25.02 3°6.93 31.2 11 21 10.2
2003-09-18 08:51:01 51°25.2 3°7.04 31.7 11.2 22 9.7
2003-09-18 08:52:01 51°25.37 3°7.15 31.8 11.9 22 9.8
2003-09-18 08:53:01 51°25.56 3°7.28 31.3 12.4 22 9.9
2003-09-18 08:54:01 51°25.75 3°7.41 30.4 13.2 22 9.9
2003-09-18 08:55:01 51°25.96 3°7.55 30.9 13.4 23 9.4
2003-09-18 08:56:01 51°26.16 3°7.7 31.5 13.5 24 9.8
2003-09-18 08:57:01 51°26.37 3°7.84 28.9 13.6 22 10.2
2003-09-18 08:58:01 51°26.58 3°7.98 31.9 13.6 25 10.4
2003-09-18 08:59:01 51°26.78 3°8.14 32.3 13.7 24 11.8
2003-09-18 09:00:01 51°26.99 3°8.28 30.3 13.6 24 11.9
2003-09-18 09:01:01 51°27.2 3°8.43 30.5 13.7 24 12.1
2003-09-18 09:02:01 51°27.4 3°8.58 30.8 13.7 24 12.8
2003-09-18 09:03:01 51°27.61 3°8.73 30.5 13.6 24 13.1
2003-09-18 09:04:01 51°27.82 3°8.88 31.7 13.5 25 13.4
2003-09-18 09:05:01 51°27.98 3°8.98 17.5 8.4 8 13.9
2003-09-18 09:06:01 51°28.1 3°9.02 35.4 5.8 26 14.2
2003-09-18 09:07:01 51°28.14 3°9.05 71.8 1.2 357 14
2003-09-18 09:08:01 51°28.16 3°9.06 81.2 1 8 14
2003-09-18 09:09:01 51°28.18 3°9.06 93.4 1 14 14.1
2003-09-18 09:10:01 51°28.19 3°9.07 100.6 1 13 14.1
2003-09-18 09:11:01 51°28.21 3°9.07 106.6 1 14 14.1
2003-09-18 09:12:01 51°28.22 3°9.08 113.2 0.8 11 14.2
2003-09-18 09:13:01 51°28.23 3°9.08 116.2 0.7 9 14.2
2003-09-18 09:14:01 51°28.24 3°9.08 119 0.8 11 14.3
2003-09-18 09:15:01 51°28.26 3°9.09 121.3 0.7 6 14.3
2003-09-18 09:16:01 51°28.27 3°9.09 124.6 0.7 7 14.4
2003-09-18 09:17:01 51°28.28 3°9.09 126.4 0.8 9 14.4
2003-09-18 09:18:01 51°28.29 3°9.11 112.6 2.4 89 14.3
2003-09-18 09:19:01 51°28.34 3°9.18 23.6 5.5 10 14.3
2003-09-18 09:20:01 51°28.41 3°9.1 292.7 5.9 291 14.7
2003-09-18 09:21:01 51°28.38 3°8.99 199.8 4.4 198 14.7
2003-09-18 09:22:01 51°28.3 3°9.02 168.8 6.2 166 14.4
2003-09-18 09:23:01 51°28.2 3°9.08 165.5 5.7 164 14
2003-09-18 09:24:01 51°28.16 3°9.1 157.3 0.4 116 13.9
2003-09-18 09:25:01 51°28.16 3°9.11 145.6 0.5 53 14
2003-09-18 09:26:01 51°28.17 3°9.12 142.5 0.4 47 13.9
2003-09-18 09:27:01 51°28.17 3°9.12 145.8 0.4 37 13.9
2003-09-18 09:28:01 51°28.18 3°9.13 147.5 0.4 43 13.9
2003-09-18 09:29:01 51°28.18 3°9.14 147.3 0.4 52 13.9
2003-09-18 09:30:01 51°28.19 3°9.15 149.3 0.3 80 13.8
2003-09-18 09:31:01 51°28.18 3°9.16 155.5 0.4 113 13.8
2003-09-18 09:32:01 51°28.18 3°9.16 160.6 0.4 134 13.8
2003-09-18 09:33:01 51°28.17 3°9.17 163.9 0.4 145 13.7
2003-09-18 09:34:01 51°28.17 3°9.18 167.6 0.5 152 13.8
2003-09-18 09:35:01 51°28.16 3°9.18 171 0.5 156 13.7
2003-09-18 09:36:01 51°28.16 3°9.19 173.2 0.4 166 13.6
2003-09-18 09:37:01 51°28.15 3°9.19 175.6 0.7 169 13.6
2003-09-18 09:38:01 51°28.12 3°9.16 228.3 3.4 235 13.7
2003-09-18 09:39:01 51°28.12 3°9.05 289 5.6 290 13.7
2003-09-18 09:40:01 51°28.15 3°8.88 281.9 6.5 282 13.9
2003-09-18 09:41:01 51°28.17 3°8.71 283 6.6 282 14.1
2003-09-18 09:42:01 51°28.2 3°8.54 283.5 6.6 283 13.8
2003-09-18 09:43:01 51°28.22 3°8.37 283.7 6.6 283 13.4
2003-09-18 09:44:01 51°28.25 3°8.2 283.7 6.7 283 12.6
2003-09-18 09:45:01 51°28.27 3°8.02 285.2 6.8 285 13.7
2003-09-18 09:46:01 51°28.3 3°7.85 284.8 6.7 284 14.3
2003-09-18 09:47:01 51°28.33 3°7.67 284.5 6.7 283 14.7
2003-09-18 09:48:01 51°28.35 3°7.5 284.5 6.6 283 15.1
2003-09-18 09:49:01 51°28.38 3°7.33 284.5 6.6 283 15.2
2003-09-18 09:50:01 51°28.4 3°7.16 283.7 6.6 282 15.4
2003-09-18 09:51:01 51°28.42 3°6.99 285.6 6.6 285 15.6
2003-09-18 09:52:01 51°28.45 3°6.81 283.7 6.6 282 15.4
2003-09-18 09:53:01 51°28.47 3°6.64 284.6 6.6 282 15.7
2003-09-18 09:54:01 51°28.49 3°6.47 284.7 6.6 283 16.1
2003-09-18 09:55:01 51°28.51 3°6.3 284.5 6.6 283 16.3
2003-09-18 09:56:01 51°28.54 3°6.13 284.6 6.6 282 16.4
2003-09-18 09:57:02 51°28.56 3°5.96 284.2 6.5 282 15.8
2003-09-18 09:58:01 51°28.58 3°5.79 282.5 6.5 280 16.2
2003-09-18 09:59:01 51°28.6 3°5.62 281.5 6.4 279 16.7
2003-09-18 10:00:01 51°28.62 3°5.45 278.4 6.5 276 17
2003-09-18 10:01:01 51°28.62 3°5.28 271.4 6.4 269 18.1
2003-09-18 10:02:01 51°28.61 3°5.11 268 6.4 266 18.8
2003-09-18 10:03:01 51°28.6 3°4.94 262.9 6.4 261 19.6
2003-09-18 10:04:01 51°28.59 3°4.77 264.3 6.4 263 20.1
2003-09-18 10:05:01 51°28.57 3°4.6 264 6.4 263 20.7
2003-09-18 10:06:01 51°28.56 3°4.43 263.5 6.4 261 21.1
2003-09-18 10:07:01 51°28.54 3°4.26 265 6.4 263 21.7
2003-09-18 10:08:01 51°28.53 3°4.09 261.3 6.4 258 22
2003-09-18 10:09:01 51°28.49 3°3.93 253.2 6.4 251 22.3
2003-09-18 10:10:01 51°28.5 3°3.79 314 4.4 306 22.8
2003-09-18 10:11:01 51°28.56 3°3.72 343.7 3.9 333 23.1
2003-09-18 10:12:01 51°28.61 3°3.68 353.3 3 340 23.1
2003-09-18 10:13:01 51°28.65 3°3.68 30 2.3 15 23.3
2003-09-18 10:14:01 51°28.68 3°3.71 56.2 1.8 47 23.3
2003-09-18 10:15:01 51°28.69 3°3.74 69.1 0.7 52 23.3
2003-09-18 10:16:01 51°28.69 3°3.73 80.9 0.5 272 23.3
2003-09-18 10:17:01 51°28.7 3°3.72 86.9 0.3 275 23.3
2003-09-18 10:18:01 51°28.7 3°3.71 101.1 0.2 272 23.3
2003-09-18 10:19:01 51°28.7 3°3.7 112.4 0.2 249 23.3
2003-09-18 10:20:01 51°28.69 3°3.7 122.3 0.3 231 23.4
2003-09-18 10:21:01 51°28.69 3°3.69 127.7 0.2 219 23.3
2003-09-18 10:22:01 51°28.69 3°3.69 122.5 0.4 145 23.4
2003-09-18 10:23:01 51°28.68 3°3.71 112.4 0.7 131 23.3
2003-09-18 10:24:01 51°28.67 3°3.72 105.6 0.6 120 23.2
2003-09-18 10:25:01 51°28.67 3°3.73 108.5 0.5 125 23.4
2003-09-18 10:26:01 51°28.66 3°3.74 112.3 0.4 143 23.4
2003-09-18 10:27:01 51°28.66 3°3.75 116.7 0.3 146 23.3
2003-09-18 10:28:01 51°28.65 3°3.75 124.6 0.4 156 23.2
2003-09-18 10:29:01 51°28.64 3°3.75 129.8 0.4 163 23.2
2003-09-18 10:30:01 51°28.64 3°3.75 133.5 0.4 176 23.1
2003-09-18 10:31:01 51°28.63 3°3.76 137.4 0.4 176 23.2
2003-09-18 10:32:01 51°28.62 3°3.76 141.2 0.5 183 23.1
2003-09-18 10:33:01 51°28.61 3°3.76 145.8 0.4 181 23
2003-09-18 10:34:01 51°28.61 3°3.76 147.7 0.4 180 23.2
2003-09-18 10:35:01 51°28.6 3°3.76 149.8 0.5 180 23.1
2003-09-18 10:36:01 51°28.59 3°3.75 151.8 0.5 176 23.1
2003-09-18 10:37:01 51°28.59 3°3.75 150.5 0.5 186 23.1
2003-09-18 10:38:01 51°28.58 3°3.75 145.8 0.6 175 22.9
2003-09-18 10:39:01 51°28.57 3°3.76 140.2 0.7 167 23
2003-09-18 10:40:01 51°28.55 3°3.76 135.8 0.8 166 23.1
2003-09-18 10:41:01 51°28.54 3°3.77 129.1 0.8 155 23
2003-09-18 10:42:01 51°28.53 3°3.78 123.5 0.8 140 22.9
2003-09-18 10:43:01 51°28.52 3°3.8 109.2 1 120 22.7
2003-09-18 10:44:01 51°28.51 3°3.82 91.8 1 104 22.7
2003-09-18 10:45:01 51°28.51 3°3.85 76.8 0.8 83 22.4
2003-09-18 10:46:01 51°28.52 3°3.87 57.3 0.7 55 22.7
2003-09-18 10:47:01 51°28.53 3°3.88 39 0.8 23 22.5
2003-09-18 10:48:01 51°28.54 3°3.88 31.6 0.9 7 22.5
2003-09-18 10:49:05 51°28.56 3°3.88 24.1 1 358 22.6
2003-09-18 10:50:05 51°28.57 3°3.88 16.6 1 352 22.7
2003-09-18 10:51:05 51°28.59 3°3.88 11.7 1.1 345 22.7
2003-09-18 10:52:05 51°28.61 3°3.87 11.1 1.2 346 22.8
2003-09-18 10:53:05 51°28.63 3°3.86 10.4 1.2 346 22.9
2003-09-18 10:54:09 51°28.65 3°3.85 11.5 1.2 348 23.1
2003-09-18 10:55:09 51°28.67 3°3.85 11.2 1.2 347 23.2
2003-09-18 10:56:09 51°28.69 3°3.84 9.5 1.2 348 23.4
2003-09-18 10:57:09 51°28.71 3°3.83 8.6 1.2 347 23.4
2003-09-18 10:58:09 51°28.72 3°3.82 6.6 1.1 342 23.4
2003-09-18 10:59:09 51°28.74 3°3.81 4.3 1.1 341 23.4
2003-09-18 11:00:09 51°28.76 3°3.8 354.7 1.6 331 23.3
2003-09-18 11:01:09 51°28.79 3°3.78 359.6 1.6 340 23.5
2003-09-18 11:02:09 51°28.81 3°3.77 5.5 1.6 348 23.5
2003-09-18 11:03:09 51°28.84 3°3.76 11.7 1.5 355 23.6
2003-09-18 11:04:09 51°28.86 3°3.77 35.5 1.3 21 23.5
2003-09-18 11:05:09 51°28.87 3°3.79 64.5 1.2 68 23.6
2003-09-18 11:06:09 51°28.86 3°3.84 126.3 3.6 136 23.6
2003-09-18 11:07:09 51°28.78 3°3.84 213.5 6.7 214 23.6
2003-09-18 11:08:09 51°28.63 3°3.66 219.2 13.7 218 23.2
2003-09-18 11:09:09 51°28.46 3°3.4 225.8 14.3 224 23.1
2003-09-18 11:10:09 51°28.28 3°3.15 224 14.3 222 23.2
2003-09-18 11:11:09 51°28.1 3°2.89 223.6 14.4 221 22.9
2003-09-18 11:12:09 51°27.92 3°2.64 223.6 14.3 221 22.6
2003-09-18 11:13:09 51°27.74 3°2.39 223.7 14.3 221 22.5
2003-09-18 11:14:09 51°27.56 3°2.14 223.9 14.3 221 21.5
2003-09-18 11:15:10 51°27.38 3°1.88 224.2 14.4 221 20.1
2003-09-18 11:16:10 51°27.2 3°1.63 224.7 14.4 221 19.2
2003-09-18 11:17:10 51°27.02 3°1.38 224.2 14.4 221 17.1
2003-09-18 11:18:16 51°26.82 3°1.1 224.8 14.5 221 18.5
2003-09-18 11:19:16 51°26.64 3°0.85 224.1 14.3 221 19.8
2003-09-18 11:20:15 51°26.46 3°0.61 223.9 14.2 220 19.8
2003-09-18 11:21:15 51°26.27 3°0.39 216 14.2 212 19.2
2003-09-18 11:22:15 51°26.07 3°0.19 209.6 14.1 205 19.3
2003-09-18 11:23:16 51°25.83 3°0.11 188.1 14.1 186 18.1
2003-09-18 11:24:16 51°25.6 3°0.06 189.4 14.1 187 17.1
2003-09-18 11:25:16 51°25.37 3°0.01 189.7 14 188 16.4
2003-09-18 11:26:16 51°25.14 2°59.95 190.8 14.1 189 16.1
2003-09-18 11:27:16 51°24.91 2°59.89 190.8 14.2 189 17.2
2003-09-18 11:28:15 51°24.68 2°59.83 189.8 13.9 188 17.7
2003-09-18 11:29:15 51°24.45 2°59.83 178.5 14.1 178 14.3
2003-09-18 11:30:15 51°24.22 2°59.86 176.6 13.9 176 16
2003-09-18 11:31:15 51°23.98 2°59.87 180.4 13.9 180 16.6
2003-09-18 11:32:15 51°23.75 2°59.86 181.2 14 180 18
2003-09-18 11:33:15 51°23.53 2°59.86 181.8 11 181 17.8
2003-09-18 11:34:15 51°23.4 2°59.84 190.2 6.2 189 18
2003-09-18 11:35:15 51°23.3 2°59.85 145.8 6.8 147 17.9
2003-09-18 11:36:15 51°23.26 2°59.95 100.3 2.9 109 17.3
2003-09-18 11:37:15 51°23.25 2°59.97 80.2 0.6 157 17.3
2003-09-18 11:38:15 51°23.25 2°59.98 65.6 0.3 113 17.2
2003-09-18 11:39:15 51°23.24 2°59.99 58.4 0.4 115 17.2
2003-09-18 11:40:15 51°23.24 3°0 54.4 0.4 107 17.1
2003-09-18 11:41:15 51°23.24 3°0 50.6 0.3 90 17.1
2003-09-18 11:42:15 51°23.24 3°0.01 45.4 0.3 73 16.9
2003-09-18 11:43:15 51°23.24 3°0.02 39.9 0.2 73 17
2003-09-18 11:44:15 51°23.24 3°0.02 35.1 0.2 75 17
2003-09-18 11:45:15 51°23.24 3°0.03 29.3 0.1 52 17
2003-09-18 11:46:15 51°23.24 3°0.02 23.8 0.1 280 17.1
2003-09-18 11:47:15 51°23.24 3°0.02 17.8 0.1 251 17.1
2003-09-18 11:48:15 51°23.24 3°0.02 12.3 0.2 254 17.2
2003-09-18 11:49:15 51°23.24 3°0.01 7 0.3 245 17.1
2003-09-18 11:50:21 51°23.24 3°0 3.1 0.3 237 17
2003-09-18 11:51:21 51°23.23 3°0 358.5 0.4 234 17.1
2003-09-18 11:52:21 51°23.23 2°59.99 353.4 0.3 224 17.1
2003-09-18 11:53:21 51°23.22 2°59.98 350.9 0.4 225 17.1
2003-09-18 11:54:21 51°23.22 2°59.97 353.9 0.4 218 17.1
2003-09-18 11:55:21 51°23.21 2°59.97 357.9 0.3 194 17.1
2003-09-18 11:56:21 51°23.21 2°59.97 359.9 0.1 240 17.2
2003-09-18 11:57:21 51°23.21 2°59.96 0.2 0.3 298 17.1
2003-09-18 11:58:21 51°23.21 2°59.95 357.4 0.5 304 17.1
2003-09-18 11:59:21 51°23.22 2°59.94 357.1 0.6 310 17
2003-09-18 12:00:21 51°23.23 2°59.93 356.9 0.6 311 17.4
2003-09-18 12:01:21 51°23.23 2°59.92 0.7 0.6 318 17.5
2003-09-18 12:02:21 51°23.24 2°59.91 3.4 0.6 326 17.4
2003-09-18 12:03:21 51°23.25 2°59.9 5 0.7 321 17.4
2003-09-18 12:04:21 51°23.26 2°59.89 9 0.6 334 17.7
2003-09-18 12:05:21 51°23.27 2°59.88 347.1 1.3 316 17.7
2003-09-18 12:06:21 51°23.29 2°59.8 284.6 5.5 270 18.2
2003-09-18 12:07:21 51°23.22 2°59.63 230.8 9.3 227 18.1
2003-09-18 12:08:21 51°23.09 2°59.45 221.7 11.9 220 17.3
2003-09-18 12:09:21 51°22.92 2°59.21 222 14.4 220 17
2003-09-18 12:10:21 51°22.73 2°58.96 223.8 14.3 221 16.6
2003-09-18 12:11:21 51°22.55 2°58.71 222.6 14.3 221 16.1
2003-09-18 12:12:21 51°22.37 2°58.46 223 14.3 220 15.9
2003-09-18 12:13:21 51°22.19 2°58.21 222.8 14.4 220 15.6
2003-09-18 12:14:21 51°22.01 2°57.97 223.5 14.4 221 14.9
2003-09-18 12:15:21 51°21.82 2°57.72 224.2 14.4 222 14.7
2003-09-18 12:16:21 51°21.64 2°57.47 223.1 14.4 221 14.4
2003-09-18 12:17:21 51°21.46 2°57.22 223.5 14.3 221 14.2
2003-09-18 12:18:21 51°21.28 2°56.97 224.3 14.5 221 13.9
2003-09-18 12:19:21 51°21.1 2°56.72 223.6 14.4 220 13.7
2003-09-18 12:20:21 51°20.92 2°56.47 225 14.4 222 13.7
2003-09-18 12:21:21 51°20.74 2°56.21 226.2 14.5 223 13.4
2003-09-18 12:22:21 51°20.56 2°55.95 224.9 14.4 222 13.3
2003-09-18 12:23:21 51°20.39 2°55.69 226.2 14.4 223 13.3
2003-09-18 12:24:21 51°20.21 2°55.43 224.4 14.4 221 13
2003-09-18 12:25:21 51°20.03 2°55.18 225.2 14.4 222 12.9
2003-09-18 12:26:21 51°19.85 2°54.92 225.2 14.5 223 12.9
2003-09-18 12:27:21 51°19.67 2°54.66 225.2 14.4 222 12.6
2003-09-18 12:28:21 51°19.49 2°54.41 225.2 14.5 222 12.3
2003-09-18 12:29:21 51°19.32 2°54.15 225.2 14.5 222 12.2
2003-09-18 12:30:22 51°19.13 2°53.89 225 14.5 221 12.1
2003-09-18 12:31:22 51°18.95 2°53.63 224.3 14.5 222 11.8
2003-09-18 12:32:22 51°18.77 2°53.38 225.1 14.3 221 11.5
2003-09-18 12:33:22 51°18.59 2°53.12 225.3 14.6 223 11.5
2003-09-18 12:34:21 51°18.42 2°52.86 226.1 14.6 223 11.3
2003-09-18 12:35:21 51°18.23 2°52.64 209.7 14.2 206 10.7
2003-09-18 12:36:22 51°17.99 2°52.53 195.8 14.6 197 10.5
2003-09-18 12:37:22 51°17.76 2°52.43 194.2 14.4 194 10.7
2003-09-18 12:38:21 51°17.53 2°52.37 188.8 14.2 187 10.6
2003-09-18 12:39:21 51°17.29 2°52.39 167.2 13.8 164 10.5
2003-09-18 12:40:21 51°17.09 2°52.56 142.4 13.6 146 9.9
2003-09-18 12:41:21 51°16.9 2°52.76 147.7 13.7 149 9.5
2003-09-18 12:42:21 51°16.69 2°52.93 153.2 14.3 154 11.4
2003-09-18 12:43:21 51°16.49 2°53.1 152.6 13.9 155 12.4
2003-09-18 12:44:21 51°16.28 2°53.27 153.1 13.7 153 12.6
2003-09-18 12:45:21 51°16.08 2°53.45 150 13.7 148 12.2
2003-09-18 12:46:21 51°15.88 2°53.62 149.9 13.7 152 11.7
2003-09-18 12:47:21 51°15.68 2°53.8 151.9 13.6 152 11.1
2003-09-18 12:48:21 51°15.49 2°53.98 150.1 13.7 151 10.3
2003-09-18 12:49:21 51°15.29 2°54.16 149.3 13.6 149 9.4
2003-09-18 12:50:21 51°15.09 2°54.33 151 13.5 153 8.7
2003-09-18 12:51:21 51°14.9 2°54.5 154.5 13.2 151 9.3
2003-09-18 12:52:21 51°14.71 2°54.67 151.2 12.9 153 9.7
2003-09-18 12:53:21 51°14.54 2°54.87 139.3 12.4 139 10
2003-09-18 12:54:21 51°14.39 2°55.09 138.6 12.5 135 10.7
2003-09-18 12:55:21 51°14.24 2°55.3 142.1 11.2 140 11.2
2003-09-18 12:56:21 51°14.11 2°55.44 159.6 8.2 156 10.9
2003-09-18 12:57:21 51°14.01 2°55.51 159.3 6 156 11.1
2003-09-18 12:58:21 51°13.93 2°55.57 160.8 4.7 157 11.4
2003-09-18 12:59:21 51°13.86 2°55.61 160.3 4.2 156 10.8
2003-09-18 13:00:21 51°13.8 2°55.66 157.8 3.8 153 11.2
2003-09-18 13:01:21 51°13.75 2°55.72 139.8 3.6 137 11
2003-09-18 13:02:21 51°13.71 2°55.79 132.2 3.7 129 13
2003-09-18 13:03:21 51°13.67 2°55.87 128.7 3.7 125 11.1
2003-09-18 13:04:21 51°13.64 2°55.95 126.4 3.7 122 11.2
2003-09-18 13:05:21 51°13.62 2°56.02 119 2.7 114 11.2
2003-09-18 13:06:21 51°13.61 2°56.08 107 1 95 9
2003-09-18 13:07:21 51°13.6 2°56.1 115.5 0.8 122 7.6
2003-09-18 13:08:25 51°13.6 2°56.11 118.3 0.1 266 7.5
2003-09-18 13:09:25 51°13.6 2°56.11 126.2 0.1 29 -999
2003-09-18 13:10:25 51°13.6 2°56.11 127.5 0.1 42 -999